sensor_id;sensor_type;location;lat;lon;timestamp;P1;durP1;ratioP1;P2;durP2;ratioP2
11263;SDS011;5689;48.798;9.070;2024-02-21T00:01:07;0.40;;;0.40;;
11263;SDS011;5689;48.798;9.070;2024-02-21T00:03:36;0.30;;;0.30;;
11263;SDS011;5689;48.798;9.070;2024-02-21T00:06:04;0.30;;;0.30;;
11263;SDS011;5689;48.798;9.070;2024-02-21T00:08:33;0.30;;;0.30;;
11263;SDS011;5689;48.798;9.070;2024-02-21T00:11:01;0.20;;;0.20;;
11263;SDS011;5689;48.798;9.070;2024-02-21T00:13:29;0.40;;;0.40;;
11263;SDS011;5689;48.798;9.070;2024-02-21T00:15:57;0.30;;;0.30;;
11263;SDS011;5689;48.798;9.070;2024-02-21T00:18:27;0.30;;;0.30;;
11263;SDS011;5689;48.798;9.070;2024-02-21T00:20:57;0.30;;;0.30;;
11263;SDS011;5689;48.798;9.070;2024-02-21T00:23:25;0.33;;;0.33;;
11263;SDS011;5689;48.798;9.070;2024-02-21T00:25:53;0.30;;;0.30;;
11263;SDS011;5689;48.798;9.070;2024-02-21T00:28:21;0.30;;;0.30;;
11263;SDS011;5689;48.798;9.070;2024-02-21T00:30:49;0.30;;;0.30;;
11263;SDS011;5689;48.798;9.070;2024-02-21T00:33:17;0.33;;;0.33;;
11263;SDS011;5689;48.798;9.070;2024-02-21T00:35:45;0.30;;;0.30;;
11263;SDS011;5689;48.798;9.070;2024-02-21T00:38:15;0.37;;;0.37;;
11263;SDS011;5689;48.798;9.070;2024-02-21T00:40:43;0.40;;;0.40;;
11263;SDS011;5689;48.798;9.070;2024-02-21T00:43:11;0.30;;;0.30;;
11263;SDS011;5689;48.798;9.070;2024-02-21T00:45:39;0.40;;;0.40;;
11263;SDS011;5689;48.798;9.070;2024-02-21T00:48:08;0.30;;;0.30;;
11263;SDS011;5689;48.798;9.070;2024-02-21T00:50:36;0.30;;;0.30;;
11263;SDS011;5689;48.798;9.070;2024-02-21T00:53:05;0.40;;;0.40;;
11263;SDS011;5689;48.798;9.070;2024-02-21T00:55:34;0.40;;;0.40;;
11263;SDS011;5689;48.798;9.070;2024-02-21T00:58:03;0.30;;;0.30;;
11263;SDS011;5689;48.798;9.070;2024-02-21T01:00:31;0.30;;;0.30;;
11263;SDS011;5689;48.798;9.070;2024-02-21T01:02:59;0.30;;;0.30;;
11263;SDS011;5689;48.798;9.070;2024-02-21T01:05:27;0.30;;;0.30;;
11263;SDS011;5689;48.798;9.070;2024-02-21T01:07:56;0.30;;;0.30;;
11263;SDS011;5689;48.798;9.070;2024-02-21T01:10:24;0.30;;;0.30;;
11263;SDS011;5689;48.798;9.070;2024-02-21T01:12:54;0.30;;;0.30;;
11263;SDS011;5689;48.798;9.070;2024-02-21T01:15:22;0.30;;;0.30;;
11263;SDS011;5689;48.798;9.070;2024-02-21T01:17:50;0.20;;;0.20;;
11263;SDS011;5689;48.798;9.070;2024-02-21T01:20:21;0.40;;;0.40;;
11263;SDS011;5689;48.798;9.070;2024-02-21T01:22:49;0.30;;;0.30;;
11263;SDS011;5689;48.798;9.070;2024-02-21T01:25:17;0.30;;;0.30;;
11263;SDS011;5689;48.798;9.070;2024-02-21T01:27:45;0.30;;;0.30;;
11263;SDS011;5689;48.798;9.070;2024-02-21T01:30:15;0.40;;;0.40;;
11263;SDS011;5689;48.798;9.070;2024-02-21T01:32:43;0.33;;;0.33;;
11263;SDS011;5689;48.798;9.070;2024-02-21T01:35:11;0.33;;;0.33;;
11263;SDS011;5689;48.798;9.070;2024-02-21T01:37:40;0.40;;;0.40;;
11263;SDS011;5689;48.798;9.070;2024-02-21T01:40:08;0.30;;;0.30;;
11263;SDS011;5689;48.798;9.070;2024-02-21T01:42:37;0.40;;;0.40;;
11263;SDS011;5689;48.798;9.070;2024-02-21T01:45:07;0.30;;;0.30;;
11263;SDS011;5689;48.798;9.070;2024-02-21T01:47:37;0.30;;;0.30;;
11263;SDS011;5689;48.798;9.070;2024-02-21T01:50:06;0.30;;;0.30;;
11263;SDS011;5689;48.798;9.070;2024-02-21T01:52:35;0.40;;;0.40;;
11263;SDS011;5689;48.798;9.070;2024-02-21T01:55:03;0.30;;;0.30;;
11263;SDS011;5689;48.798;9.070;2024-02-21T01:57:33;0.30;;;0.30;;
11263;SDS011;5689;48.798;9.070;2024-02-21T02:00:03;0.30;;;0.30;;
11263;SDS011;5689;48.798;9.070;2024-02-21T02:02:37;0.30;;;0.30;;
11263;SDS011;5689;48.798;9.070;2024-02-21T02:05:07;0.30;;;0.30;;
11263;SDS011;5689;48.798;9.070;2024-02-21T02:07:35;0.40;;;0.40;;
11263;SDS011;5689;48.798;9.070;2024-02-21T02:10:04;0.30;;;0.30;;
11263;SDS011;5689;48.798;9.070;2024-02-21T02:12:33;0.33;;;0.33;;
11263;SDS011;5689;48.798;9.070;2024-02-21T02:15:01;0.40;;;0.40;;
11263;SDS011;5689;48.798;9.070;2024-02-21T02:17:31;0.30;;;0.30;;
11263;SDS011;5689;48.798;9.070;2024-02-21T02:20:01;0.30;;;0.30;;
11263;SDS011;5689;48.798;9.070;2024-02-21T02:22:31;0.30;;;0.30;;
11263;SDS011;5689;48.798;9.070;2024-02-21T02:25:02;0.30;;;0.30;;
11263;SDS011;5689;48.798;9.070;2024-02-21T02:27:31;0.30;;;0.30;;
11263;SDS011;5689;48.798;9.070;2024-02-21T02:30:00;0.30;;;0.30;;
11263;SDS011;5689;48.798;9.070;2024-02-21T02:32:29;0.30;;;0.30;;
11263;SDS011;5689;48.798;9.070;2024-02-21T02:34:57;0.30;;;0.30;;
11263;SDS011;5689;48.798;9.070;2024-02-21T02:37:25;0.30;;;0.30;;
11263;SDS011;5689;48.798;9.070;2024-02-21T02:39:53;0.30;;;0.30;;
11263;SDS011;5689;48.798;9.070;2024-02-21T02:42:23;0.30;;;0.30;;
11263;SDS011;5689;48.798;9.070;2024-02-21T02:44:51;0.30;;;0.30;;
11263;SDS011;5689;48.798;9.070;2024-02-21T02:47:19;0.30;;;0.30;;
11263;SDS011;5689;48.798;9.070;2024-02-21T02:49:47;0.30;;;0.30;;
11263;SDS011;5689;48.798;9.070;2024-02-21T02:52:17;0.30;;;0.30;;
11263;SDS011;5689;48.798;9.070;2024-02-21T02:54:45;0.30;;;0.30;;
11263;SDS011;5689;48.798;9.070;2024-02-21T02:57:18;0.37;;;0.37;;
11263;SDS011;5689;48.798;9.070;2024-02-21T02:59:48;0.30;;;0.30;;
11263;SDS011;5689;48.798;9.070;2024-02-21T03:02:17;0.30;;;0.30;;
11263;SDS011;5689;48.798;9.070;2024-02-21T03:04:45;0.37;;;0.37;;
11263;SDS011;5689;48.798;9.070;2024-02-21T03:07:14;0.30;;;0.30;;
11263;SDS011;5689;48.798;9.070;2024-02-21T03:09:42;0.40;;;0.40;;
11263;SDS011;5689;48.798;9.070;2024-02-21T03:12:10;0.40;;;0.40;;
11263;SDS011;5689;48.798;9.070;2024-02-21T03:14:39;0.30;;;0.30;;
11263;SDS011;5689;48.798;9.070;2024-02-21T03:17:08;0.30;;;0.30;;
11263;SDS011;5689;48.798;9.070;2024-02-21T03:19:36;0.30;;;0.30;;
11263;SDS011;5689;48.798;9.070;2024-02-21T03:22:04;0.30;;;0.30;;
11263;SDS011;5689;48.798;9.070;2024-02-21T03:24:34;0.30;;;0.30;;
11263;SDS011;5689;48.798;9.070;2024-02-21T03:27:02;0.50;;;0.50;;
11263;SDS011;5689;48.798;9.070;2024-02-21T03:29:30;0.40;;;0.40;;
11263;SDS011;5689;48.798;9.070;2024-02-21T03:31:59;0.30;;;0.30;;
11263;SDS011;5689;48.798;9.070;2024-02-21T03:34:28;0.30;;;0.30;;
11263;SDS011;5689;48.798;9.070;2024-02-21T03:36:57;0.30;;;0.30;;
11263;SDS011;5689;48.798;9.070;2024-02-21T03:39:25;0.30;;;0.30;;
11263;SDS011;5689;48.798;9.070;2024-02-21T03:41:53;0.37;;;0.37;;
11263;SDS011;5689;48.798;9.070;2024-02-21T03:44:21;0.43;;;0.43;;
11263;SDS011;5689;48.798;9.070;2024-02-21T03:46:50;0.30;;;0.30;;
11263;SDS011;5689;48.798;9.070;2024-02-21T03:49:18;0.33;;;0.33;;
11263;SDS011;5689;48.798;9.070;2024-02-21T03:51:47;0.40;;;0.40;;
11263;SDS011;5689;48.798;9.070;2024-02-21T03:54:16;0.40;;;0.40;;
11263;SDS011;5689;48.798;9.070;2024-02-21T03:56:44;0.40;;;0.40;;
11263;SDS011;5689;48.798;9.070;2024-02-21T03:59:14;0.40;;;0.40;;
11263;SDS011;5689;48.798;9.070;2024-02-21T04:01:42;0.40;;;0.40;;
11263;SDS011;5689;48.798;9.070;2024-02-21T04:04:10;0.40;;;0.40;;
11263;SDS011;5689;48.798;9.070;2024-02-21T04:06:45;0.40;;;0.40;;
11263;SDS011;5689;48.798;9.070;2024-02-21T04:09:15;0.37;;;0.37;;
11263;SDS011;5689;48.798;9.070;2024-02-21T04:11:44;0.40;;;0.40;;
11263;SDS011;5689;48.798;9.070;2024-02-21T04:14:12;0.40;;;0.40;;
11263;SDS011;5689;48.798;9.070;2024-02-21T04:16:40;0.30;;;0.30;;
11263;SDS011;5689;48.798;9.070;2024-02-21T04:19:09;0.40;;;0.40;;
11263;SDS011;5689;48.798;9.070;2024-02-21T04:21:37;0.40;;;0.40;;
11263;SDS011;5689;48.798;9.070;2024-02-21T04:24:06;0.50;;;0.50;;
11263;SDS011;5689;48.798;9.070;2024-02-21T04:26:35;0.40;;;0.40;;
11263;SDS011;5689;48.798;9.070;2024-02-21T04:29:03;0.30;;;0.30;;
11263;SDS011;5689;48.798;9.070;2024-02-21T04:31:32;0.40;;;0.40;;
11263;SDS011;5689;48.798;9.070;2024-02-21T04:34:00;0.30;;;0.30;;
11263;SDS011;5689;48.798;9.070;2024-02-21T04:36:29;0.30;;;0.30;;
11263;SDS011;5689;48.798;9.070;2024-02-21T04:38:57;0.30;;;0.30;;
11263;SDS011;5689;48.798;9.070;2024-02-21T04:41:27;0.40;;;0.40;;
11263;SDS011;5689;48.798;9.070;2024-02-21T04:43:55;0.40;;;0.40;;
11263;SDS011;5689;48.798;9.070;2024-02-21T04:46:23;0.30;;;0.30;;
11263;SDS011;5689;48.798;9.070;2024-02-21T04:48:51;0.30;;;0.30;;
11263;SDS011;5689;48.798;9.070;2024-02-21T04:51:20;0.30;;;0.30;;
11263;SDS011;5689;48.798;9.070;2024-02-21T04:53:48;0.40;;;0.40;;
11263;SDS011;5689;48.798;9.070;2024-02-21T04:56:16;0.37;;;0.37;;
11263;SDS011;5689;48.798;9.070;2024-02-21T04:58:46;0.30;;;0.30;;
11263;SDS011;5689;48.798;9.070;2024-02-21T05:01:14;0.30;;;0.30;;
11263;SDS011;5689;48.798;9.070;2024-02-21T05:03:42;0.30;;;0.30;;
11263;SDS011;5689;48.798;9.070;2024-02-21T05:06:11;0.40;;;0.40;;
11263;SDS011;5689;48.798;9.070;2024-02-21T05:08:39;0.40;;;0.40;;
11263;SDS011;5689;48.798;9.070;2024-02-21T05:11:07;0.43;;;0.43;;
11263;SDS011;5689;48.798;9.070;2024-02-21T05:13:36;0.30;;;0.30;;
11263;SDS011;5689;48.798;9.070;2024-02-21T05:16:06;0.30;;;0.30;;
11263;SDS011;5689;48.798;9.070;2024-02-21T05:18:34;0.37;;;0.37;;
11263;SDS011;5689;48.798;9.070;2024-02-21T05:21:03;0.30;;;0.30;;
11263;SDS011;5689;48.798;9.070;2024-02-21T05:23:31;0.30;;;0.30;;
11263;SDS011;5689;48.798;9.070;2024-02-21T05:25:59;0.30;;;0.30;;
11263;SDS011;5689;48.798;9.070;2024-02-21T05:28:28;0.30;;;0.30;;
11263;SDS011;5689;48.798;9.070;2024-02-21T05:30:56;0.30;;;0.30;;
11263;SDS011;5689;48.798;9.070;2024-02-21T05:33:26;0.40;;;0.40;;
11263;SDS011;5689;48.798;9.070;2024-02-21T05:35:54;0.40;;;0.40;;
11263;SDS011;5689;48.798;9.070;2024-02-21T05:38:23;0.30;;;0.30;;
11263;SDS011;5689;48.798;9.070;2024-02-21T05:40:51;0.33;;;0.33;;
11263;SDS011;5689;48.798;9.070;2024-02-21T05:43:19;0.40;;;0.40;;
11263;SDS011;5689;48.798;9.070;2024-02-21T05:45:47;0.30;;;0.30;;
11263;SDS011;5689;48.798;9.070;2024-02-21T05:48:15;0.30;;;0.30;;
11263;SDS011;5689;48.798;9.070;2024-02-21T05:50:45;0.30;;;0.30;;
11263;SDS011;5689;48.798;9.070;2024-02-21T05:53:13;0.33;;;0.33;;
11263;SDS011;5689;48.798;9.070;2024-02-21T05:55:41;0.37;;;0.37;;
11263;SDS011;5689;48.798;9.070;2024-02-21T05:58:09;0.40;;;0.40;;
11263;SDS011;5689;48.798;9.070;2024-02-21T06:00:40;0.30;;;0.30;;
11263;SDS011;5689;48.798;9.070;2024-02-21T06:03:08;0.40;;;0.40;;
11263;SDS011;5689;48.798;9.070;2024-02-21T06:05:36;0.30;;;0.30;;
11263;SDS011;5689;48.798;9.070;2024-02-21T06:08:07;0.40;;;0.40;;
11263;SDS011;5689;48.798;9.070;2024-02-21T06:10:35;0.30;;;0.30;;
11263;SDS011;5689;48.798;9.070;2024-02-21T06:13:03;0.40;;;0.40;;
11263;SDS011;5689;48.798;9.070;2024-02-21T06:15:32;0.30;;;0.30;;
11263;SDS011;5689;48.798;9.070;2024-02-21T06:18:00;0.30;;;0.30;;
11263;SDS011;5689;48.798;9.070;2024-02-21T06:20:28;0.40;;;0.40;;
11263;SDS011;5689;48.798;9.070;2024-02-21T06:22:57;0.37;;;0.37;;
11263;SDS011;5689;48.798;9.070;2024-02-21T06:25:26;0.30;;;0.30;;
11263;SDS011;5689;48.798;9.070;2024-02-21T06:27:54;0.40;;;0.40;;
11263;SDS011;5689;48.798;9.070;2024-02-21T06:30:22;0.40;;;0.40;;
11263;SDS011;5689;48.798;9.070;2024-02-21T06:32:51;0.40;;;0.40;;
11263;SDS011;5689;48.798;9.070;2024-02-21T06:35:22;0.40;;;0.40;;
11263;SDS011;5689;48.798;9.070;2024-02-21T06:37:51;0.40;;;0.40;;
11263;SDS011;5689;48.798;9.070;2024-02-21T06:40:21;0.40;;;0.40;;
11263;SDS011;5689;48.798;9.070;2024-02-21T06:42:51;0.27;;;0.27;;
11263;SDS011;5689;48.798;9.070;2024-02-21T06:45:19;0.50;;;0.50;;
11263;SDS011;5689;48.798;9.070;2024-02-21T06:47:51;0.40;;;0.40;;
11263;SDS011;5689;48.798;9.070;2024-02-21T06:50:19;0.40;;;0.40;;
11263;SDS011;5689;48.798;9.070;2024-02-21T06:52:47;0.30;;;0.30;;
11263;SDS011;5689;48.798;9.070;2024-02-21T06:55:15;0.30;;;0.30;;
11263;SDS011;5689;48.798;9.070;2024-02-21T06:57:44;0.40;;;0.40;;
11263;SDS011;5689;48.798;9.070;2024-02-21T07:00:14;0.40;;;0.40;;
11263;SDS011;5689;48.798;9.070;2024-02-21T07:02:43;0.40;;;0.40;;
11263;SDS011;5689;48.798;9.070;2024-02-21T07:05:12;0.30;;;0.30;;
11263;SDS011;5689;48.798;9.070;2024-02-21T07:07:40;0.50;;;0.50;;
11263;SDS011;5689;48.798;9.070;2024-02-21T07:10:08;0.40;;;0.40;;
11263;SDS011;5689;48.798;9.070;2024-02-21T07:12:37;0.30;;;0.30;;
11263;SDS011;5689;48.798;9.070;2024-02-21T07:15:08;0.30;;;0.30;;
11263;SDS011;5689;48.798;9.070;2024-02-21T07:17:38;0.30;;;0.30;;
11263;SDS011;5689;48.798;9.070;2024-02-21T07:20:07;0.40;;;0.40;;
11263;SDS011;5689;48.798;9.070;2024-02-21T07:22:36;0.33;;;0.33;;
11263;SDS011;5689;48.798;9.070;2024-02-21T07:25:05;0.40;;;0.40;;
11263;SDS011;5689;48.798;9.070;2024-02-21T07:27:33;0.30;;;0.30;;
11263;SDS011;5689;48.798;9.070;2024-02-21T07:30:02;0.33;;;0.33;;
11263;SDS011;5689;48.798;9.070;2024-02-21T07:32:31;0.30;;;0.30;;
11263;SDS011;5689;48.798;9.070;2024-02-21T07:35:00;0.30;;;0.30;;
11263;SDS011;5689;48.798;9.070;2024-02-21T07:37:28;0.37;;;0.37;;
11263;SDS011;5689;48.798;9.070;2024-02-21T07:39:58;0.30;;;0.30;;
11263;SDS011;5689;48.798;9.070;2024-02-21T07:42:26;0.40;;;0.40;;
11263;SDS011;5689;48.798;9.070;2024-02-21T07:44:54;0.30;;;0.30;;
11263;SDS011;5689;48.798;9.070;2024-02-21T07:47:23;0.30;;;0.30;;
11263;SDS011;5689;48.798;9.070;2024-02-21T07:49:51;0.30;;;0.30;;
11263;SDS011;5689;48.798;9.070;2024-02-21T07:52:21;0.30;;;0.30;;
11263;SDS011;5689;48.798;9.070;2024-02-21T07:54:51;0.30;;;0.30;;
11263;SDS011;5689;48.798;9.070;2024-02-21T07:57:19;0.40;;;0.40;;
11263;SDS011;5689;48.798;9.070;2024-02-21T07:59:48;0.30;;;0.30;;
11263;SDS011;5689;48.798;9.070;2024-02-21T08:02:16;0.30;;;0.30;;
11263;SDS011;5689;48.798;9.070;2024-02-21T08:04:47;0.20;;;0.20;;
11263;SDS011;5689;48.798;9.070;2024-02-21T08:07:16;0.20;;;0.20;;
11263;SDS011;5689;48.798;9.070;2024-02-21T08:09:45;0.20;;;0.20;;
11263;SDS011;5689;48.798;9.070;2024-02-21T08:12:14;0.28;;;0.28;;
11263;SDS011;5689;48.798;9.070;2024-02-21T08:14:42;0.20;;;0.20;;
11263;SDS011;5689;48.798;9.070;2024-02-21T08:17:10;0.20;;;0.20;;
11263;SDS011;5689;48.798;9.070;2024-02-21T08:19:39;0.20;;;0.20;;
11263;SDS011;5689;48.798;9.070;2024-02-21T08:22:07;0.20;;;0.20;;
11263;SDS011;5689;48.798;9.070;2024-02-21T08:24:35;0.20;;;0.20;;
11263;SDS011;5689;48.798;9.070;2024-02-21T08:27:05;0.13;;;0.13;;
11263;SDS011;5689;48.798;9.070;2024-02-21T08:29:33;0.20;;;0.20;;
11263;SDS011;5689;48.798;9.070;2024-02-21T08:32:02;0.10;;;0.10;;
11263;SDS011;5689;48.798;9.070;2024-02-21T08:34:30;0.20;;;0.20;;
11263;SDS011;5689;48.798;9.070;2024-02-21T08:37:00;0.10;;;0.10;;
11263;SDS011;5689;48.798;9.070;2024-02-21T08:39:28;0.28;;;0.28;;
11263;SDS011;5689;48.798;9.070;2024-02-21T08:41:57;0.30;;;0.30;;
11263;SDS011;5689;48.798;9.070;2024-02-21T08:44:27;0.20;;;0.20;;
11263;SDS011;5689;48.798;9.070;2024-02-21T08:46:56;0.30;;;0.30;;
11263;SDS011;5689;48.798;9.070;2024-02-21T08:49:24;0.20;;;0.20;;
11263;SDS011;5689;48.798;9.070;2024-02-21T08:51:57;0.20;;;0.20;;
11263;SDS011;5689;48.798;9.070;2024-02-21T08:54:25;0.30;;;0.30;;
11263;SDS011;5689;48.798;9.070;2024-02-21T08:56:53;0.20;;;0.20;;
11263;SDS011;5689;48.798;9.070;2024-02-21T08:59:23;0.20;;;0.20;;
11263;SDS011;5689;48.798;9.070;2024-02-21T09:01:54;0.28;;;0.28;;
11263;SDS011;5689;48.798;9.070;2024-02-21T09:04:22;0.30;;;0.30;;
11263;SDS011;5689;48.798;9.070;2024-02-21T09:06:50;0.30;;;0.30;;
11263;SDS011;5689;48.798;9.070;2024-02-21T09:09:19;0.25;;;0.25;;
11263;SDS011;5689;48.798;9.070;2024-02-21T09:11:47;0.30;;;0.30;;
11263;SDS011;5689;48.798;9.070;2024-02-21T09:14:15;0.20;;;0.20;;
11263;SDS011;5689;48.798;9.070;2024-02-21T09:16:45;0.30;;;0.30;;
11263;SDS011;5689;48.798;9.070;2024-02-21T09:19:14;0.20;;;0.20;;
11263;SDS011;5689;48.798;9.070;2024-02-21T09:21:44;0.20;;;0.20;;
11263;SDS011;5689;48.798;9.070;2024-02-21T09:24:12;0.20;;;0.20;;
11263;SDS011;5689;48.798;9.070;2024-02-21T09:26:41;0.20;;;0.20;;
11263;SDS011;5689;48.798;9.070;2024-02-21T09:29:09;0.20;;;0.20;;
11263;SDS011;5689;48.798;9.070;2024-02-21T09:31:37;0.10;;;0.10;;
11263;SDS011;5689;48.798;9.070;2024-02-21T09:34:06;0.17;;;0.17;;
11263;SDS011;5689;48.798;9.070;2024-02-21T09:36:35;0.10;;;0.10;;
11263;SDS011;5689;48.798;9.070;2024-02-21T09:39:04;0.10;;;0.10;;
11263;SDS011;5689;48.798;9.070;2024-02-21T09:41:32;0.10;;;0.10;;
11263;SDS011;5689;48.798;9.070;2024-02-21T09:44:06;0.10;;;0.10;;
11263;SDS011;5689;48.798;9.070;2024-02-21T09:46:37;0.20;;;0.20;;
11263;SDS011;5689;48.798;9.070;2024-02-21T09:49:13;0.10;;;0.10;;
11263;SDS011;5689;48.798;9.070;2024-02-21T09:51:51;0.10;;;0.10;;
11263;SDS011;5689;48.798;9.070;2024-02-21T09:54:21;0.10;;;0.10;;
11263;SDS011;5689;48.798;9.070;2024-02-21T09:56:51;0.10;;;0.10;;
11263;SDS011;5689;48.798;9.070;2024-02-21T09:59:19;0.10;;;0.10;;
11263;SDS011;5689;48.798;9.070;2024-02-21T10:01:47;0.10;;;0.10;;
11263;SDS011;5689;48.798;9.070;2024-02-21T10:04:16;0.10;;;0.10;;
11263;SDS011;5689;48.798;9.070;2024-02-21T10:06:46;0.10;;;0.10;;
11263;SDS011;5689;48.798;9.070;2024-02-21T10:09:22;0.10;;;0.10;;
11263;SDS011;5689;48.798;9.070;2024-02-21T10:11:54;0.10;;;0.10;;
11263;SDS011;5689;48.798;9.070;2024-02-21T10:14:23;0.10;;;0.10;;
11263;SDS011;5689;48.798;9.070;2024-02-21T10:16:56;0.10;;;0.10;;
11263;SDS011;5689;48.798;9.070;2024-02-21T10:19:26;0.10;;;0.10;;
11263;SDS011;5689;48.798;9.070;2024-02-21T10:22:01;0.10;;;0.10;;
11263;SDS011;5689;48.798;9.070;2024-02-21T10:24:32;0.10;;;0.10;;
11263;SDS011;5689;48.798;9.070;2024-02-21T10:27:04;0.10;;;0.10;;
11263;SDS011;5689;48.798;9.070;2024-02-21T10:29:35;0.10;;;0.10;;
11263;SDS011;5689;48.798;9.070;2024-02-21T10:32:04;0.10;;;0.10;;
11263;SDS011;5689;48.798;9.070;2024-02-21T10:34:34;0.10;;;0.10;;
11263;SDS011;5689;48.798;9.070;2024-02-21T10:37:06;0.10;;;0.10;;
11263;SDS011;5689;48.798;9.070;2024-02-21T10:39:38;0.10;;;0.10;;
11263;SDS011;5689;48.798;9.070;2024-02-21T10:42:09;0.10;;;0.10;;
11263;SDS011;5689;48.798;9.070;2024-02-21T10:44:39;0.10;;;0.10;;
11263;SDS011;5689;48.798;9.070;2024-02-21T10:47:09;0.05;;;0.05;;
11263;SDS011;5689;48.798;9.070;2024-02-21T10:49:39;0.10;;;0.10;;
11263;SDS011;5689;48.798;9.070;2024-02-21T10:52:13;0.10;;;0.10;;
11263;SDS011;5689;48.798;9.070;2024-02-21T10:54:47;0.10;;;0.10;;
11263;SDS011;5689;48.798;9.070;2024-02-21T10:57:20;0.10;;;0.10;;
11263;SDS011;5689;48.798;9.070;2024-02-21T10:59:49;0.10;;;0.10;;
11263;SDS011;5689;48.798;9.070;2024-02-21T11:02:18;0.10;;;0.10;;
11263;SDS011;5689;48.798;9.070;2024-02-21T11:04:47;0.10;;;0.10;;
11263;SDS011;5689;48.798;9.070;2024-02-21T11:07:18;0.10;;;0.10;;
11263;SDS011;5689;48.798;9.070;2024-02-21T11:09:51;0.10;;;0.10;;
11263;SDS011;5689;48.798;9.070;2024-02-21T11:12:23;0.10;;;0.10;;
11263;SDS011;5689;48.798;9.070;2024-02-21T11:15:03;0.10;;;0.10;;
11263;SDS011;5689;48.798;9.070;2024-02-21T11:17:35;0.10;;;0.10;;
11263;SDS011;5689;48.798;9.070;2024-02-21T11:20:13;0.10;;;0.10;;
11263;SDS011;5689;48.798;9.070;2024-02-21T11:22:44;0.10;;;0.10;;
11263;SDS011;5689;48.798;9.070;2024-02-21T11:25:22;0.10;;;0.10;;
11263;SDS011;5689;48.798;9.070;2024-02-21T11:27:59;0.10;;;0.10;;
11263;SDS011;5689;48.798;9.070;2024-02-21T11:30:30;0.10;;;0.10;;
11263;SDS011;5689;48.798;9.070;2024-02-21T11:33:00;0.10;;;0.10;;
11263;SDS011;5689;48.798;9.070;2024-02-21T11:35:33;0.10;;;0.10;;
11263;SDS011;5689;48.798;9.070;2024-02-21T11:38:09;0.10;;;0.10;;
11263;SDS011;5689;48.798;9.070;2024-02-21T11:40:43;0.10;;;0.10;;
11263;SDS011;5689;48.798;9.070;2024-02-21T11:43:13;0.10;;;0.10;;
11263;SDS011;5689;48.798;9.070;2024-02-21T11:49:48;0.10;;;0.10;;
11263;SDS011;5689;48.798;9.070;2024-02-21T11:52:21;0.10;;;0.10;;
11263;SDS011;5689;48.798;9.070;2024-02-21T11:54:52;0.10;;;0.10;;
11263;SDS011;5689;48.798;9.070;2024-02-21T11:57:22;0.10;;;0.10;;
11263;SDS011;5689;48.798;9.070;2024-02-21T11:59:51;0.10;;;0.10;;
11263;SDS011;5689;48.798;9.070;2024-02-21T12:02:25;0.10;;;0.10;;
11263;SDS011;5689;48.798;9.070;2024-02-21T12:04:55;0.10;;;0.10;;
11263;SDS011;5689;48.798;9.070;2024-02-21T12:07:23;0.10;;;0.10;;
11263;SDS011;5689;48.798;9.070;2024-02-21T12:09:51;0.10;;;0.10;;
11263;SDS011;5689;48.798;9.070;2024-02-21T12:12:20;0.10;;;0.10;;
11263;SDS011;5689;48.798;9.070;2024-02-21T12:14:55;0.10;;;0.10;;
11263;SDS011;5689;48.798;9.070;2024-02-21T12:17:24;0.10;;;0.10;;
11263;SDS011;5689;48.798;9.070;2024-02-21T12:19:53;0.10;;;0.10;;
11263;SDS011;5689;48.798;9.070;2024-02-21T12:22:21;0.20;;;0.20;;
11263;SDS011;5689;48.798;9.070;2024-02-21T12:24:49;0.10;;;0.10;;
11263;SDS011;5689;48.798;9.070;2024-02-21T12:27:17;0.10;;;0.10;;
11263;SDS011;5689;48.798;9.070;2024-02-21T12:29:46;0.10;;;0.10;;
11263;SDS011;5689;48.798;9.070;2024-02-21T12:32:15;0.08;;;0.08;;
11263;SDS011;5689;48.798;9.070;2024-02-21T12:34:44;0.10;;;0.10;;
11263;SDS011;5689;48.798;9.070;2024-02-21T12:37:13;0.08;;;0.08;;
11263;SDS011;5689;48.798;9.070;2024-02-21T12:39:42;0.10;;;0.10;;
11263;SDS011;5689;48.798;9.070;2024-02-21T12:42:10;0.10;;;0.10;;
11263;SDS011;5689;48.798;9.070;2024-02-21T12:44:39;0.10;;;0.10;;
11263;SDS011;5689;48.798;9.070;2024-02-21T12:47:07;0.08;;;0.08;;
11263;SDS011;5689;48.798;9.070;2024-02-21T12:49:36;0.10;;;0.10;;
11263;SDS011;5689;48.798;9.070;2024-02-21T12:52:06;0.10;;;0.10;;
11263;SDS011;5689;48.798;9.070;2024-02-21T12:54:34;0.10;;;0.10;;
11263;SDS011;5689;48.798;9.070;2024-02-21T12:57:02;0.20;;;0.20;;
11263;SDS011;5689;48.798;9.070;2024-02-21T12:59:31;0.10;;;0.10;;
11263;SDS011;5689;48.798;9.070;2024-02-21T13:01:59;0.10;;;0.10;;
11263;SDS011;5689;48.798;9.070;2024-02-21T13:04:27;0.10;;;0.10;;
11263;SDS011;5689;48.798;9.070;2024-02-21T13:06:57;0.10;;;0.10;;
11263;SDS011;5689;48.798;9.070;2024-02-21T13:09:25;0.10;;;0.10;;
11263;SDS011;5689;48.798;9.070;2024-02-21T13:11:54;0.10;;;0.10;;
11263;SDS011;5689;48.798;9.070;2024-02-21T13:14:22;0.10;;;0.10;;
11263;SDS011;5689;48.798;9.070;2024-02-21T13:16:50;0.10;;;0.10;;
11263;SDS011;5689;48.798;9.070;2024-02-21T13:19:19;0.10;;;0.10;;
11263;SDS011;5689;48.798;9.070;2024-02-21T13:21:47;0.00;;;0.00;;
11263;SDS011;5689;48.798;9.070;2024-02-21T13:24:17;0.10;;;0.10;;
11263;SDS011;5689;48.798;9.070;2024-02-21T13:26:45;0.10;;;0.10;;
11263;SDS011;5689;48.798;9.070;2024-02-21T13:29:13;0.10;;;0.10;;
11263;SDS011;5689;48.798;9.070;2024-02-21T13:31:41;0.10;;;0.10;;
11263;SDS011;5689;48.798;9.070;2024-02-21T13:34:09;0.10;;;0.10;;
11263;SDS011;5689;48.798;9.070;2024-02-21T13:36:37;0.10;;;0.10;;
11263;SDS011;5689;48.798;9.070;2024-02-21T13:39:05;0.10;;;0.10;;
11263;SDS011;5689;48.798;9.070;2024-02-21T13:41:35;0.10;;;0.10;;
11263;SDS011;5689;48.798;9.070;2024-02-21T13:44:03;0.10;;;0.10;;
11263;SDS011;5689;48.798;9.070;2024-02-21T13:46:31;0.10;;;0.10;;
11263;SDS011;5689;48.798;9.070;2024-02-21T13:49:02;0.10;;;0.10;;
11263;SDS011;5689;48.798;9.070;2024-02-21T13:51:32;0.10;;;0.10;;
11263;SDS011;5689;48.798;9.070;2024-02-21T13:54:02;0.10;;;0.10;;
11263;SDS011;5689;48.798;9.070;2024-02-21T13:56:31;0.00;;;0.00;;
11263;SDS011;5689;48.798;9.070;2024-02-21T13:59:00;0.00;;;0.00;;
11263;SDS011;5689;48.798;9.070;2024-02-21T14:01:29;0.00;;;0.00;;
11263;SDS011;5689;48.798;9.070;2024-02-21T14:03:58;0.00;;;0.00;;
11263;SDS011;5689;48.798;9.070;2024-02-21T14:06:26;0.00;;;0.00;;
11263;SDS011;5689;48.798;9.070;2024-02-21T14:08:55;0.00;;;0.00;;
11263;SDS011;5689;48.798;9.070;2024-02-21T14:11:23;0.00;;;0.00;;
11263;SDS011;5689;48.798;9.070;2024-02-21T14:13:51;0.00;;;0.00;;
11263;SDS011;5689;48.798;9.070;2024-02-21T14:16:25;0.00;;;0.00;;
11263;SDS011;5689;48.798;9.070;2024-02-21T14:18:53;0.00;;;0.00;;
11263;SDS011;5689;48.798;9.070;2024-02-21T14:21:21;0.00;;;0.00;;
11263;SDS011;5689;48.798;9.070;2024-02-21T14:23:50;0.00;;;0.00;;
11263;SDS011;5689;48.798;9.070;2024-02-21T14:26:19;0.00;;;0.00;;
11263;SDS011;5689;48.798;9.070;2024-02-21T14:28:48;0.00;;;0.00;;
11263;SDS011;5689;48.798;9.070;2024-02-21T14:31:16;0.00;;;0.00;;
11263;SDS011;5689;48.798;9.070;2024-02-21T14:33:45;0.00;;;0.00;;
11263;SDS011;5689;48.798;9.070;2024-02-21T14:36:14;0.10;;;0.00;;
11263;SDS011;5689;48.798;9.070;2024-02-21T14:38:43;0.00;;;0.00;;
11263;SDS011;5689;48.798;9.070;2024-02-21T14:41:11;0.00;;;0.00;;
11263;SDS011;5689;48.798;9.070;2024-02-21T14:43:39;0.00;;;0.00;;
11263;SDS011;5689;48.798;9.070;2024-02-21T14:46:08;0.00;;;0.00;;
11263;SDS011;5689;48.798;9.070;2024-02-21T14:48:36;0.00;;;0.00;;
11263;SDS011;5689;48.798;9.070;2024-02-21T14:51:05;0.00;;;0.00;;
11263;SDS011;5689;48.798;9.070;2024-02-21T14:53:34;0.10;;;0.10;;
11263;SDS011;5689;48.798;9.070;2024-02-21T14:56:02;0.00;;;0.00;;
11263;SDS011;5689;48.798;9.070;2024-02-21T14:58:30;0.00;;;0.00;;
11263;SDS011;5689;48.798;9.070;2024-02-21T15:00:58;0.10;;;0.10;;
11263;SDS011;5689;48.798;9.070;2024-02-21T15:03:26;0.10;;;0.10;;
11263;SDS011;5689;48.798;9.070;2024-02-21T15:05:56;0.10;;;0.10;;
11263;SDS011;5689;48.798;9.070;2024-02-21T15:08:26;0.10;;;0.10;;
11263;SDS011;5689;48.798;9.070;2024-02-21T15:10:54;0.10;;;0.10;;
11263;SDS011;5689;48.798;9.070;2024-02-21T15:13:22;0.10;;;0.10;;
11263;SDS011;5689;48.798;9.070;2024-02-21T15:15:51;0.10;;;0.10;;